Time;durP1;ratioP1;P1;durP2;ratioP2;P2;SDS_P1;SDS_P2;PMS_P1;PMS_P2;Temp;Humidity;BMP_temperature;BMP_pressure;BME280_temperature;BME280_humidity;BME280_pressure;Samples;Min_cycle;Max_cycle;Signal;HPM_P1;HPM_P2
2021/01/03 11:57:52;;;;;;;20.65;11.82;;;281.80;1945.60;;;;;;5070429;28;20802;-70
2021/01/03 12:00:18;;;;;;;22.75;12.63;;;282.30;1894.40;;;;;;5069562;28;20033;-73
2021/01/03 12:02:44;;;;;;;39.80;17.20;;;282.10;1920.00;;;;;;5070793;28;20055;-73
2021/01/03 12:05:16;;;;;;;32.47;14.95;;;282.10;1945.60;;;;;;5070833;28;20484;-78
2021/01/03 12:07:42;;;;;;;37.30;17.48;;;282.00;1971.20;;;;;;5069487;28;20060;-74
2021/01/03 12:10:09;;;;;;;48.50;24.73;;;281.90;1971.20;;;;;;5069279;28;20507;-75
2021/01/03 12:12:34;;;;;;;32.25;17.20;;;281.90;1971.20;;;;;;5069196;28;20032;-73
2021/01/03 12:15:00;;;;;;;30.98;16.58;;;281.80;1996.80;;;;;;5070584;28;20037;-74
2021/01/03 12:17:26;;;;;;;27.02;15.02;;;281.80;1996.80;;;;;;5070506;28;20044;-74
2021/01/03 12:19:52;;;;;;;31.50;17.15;;;281.70;1996.80;;;;;;5069437;28;20054;-74
2021/01/03 12:22:18;;;;;;;31.08;16.55;;;281.60;2022.40;;;;;;5067859;28;20032;-73
2021/01/03 12:24:44;;;;;;;34.97;19.50;;;281.60;2022.40;;;;;;5068162;28;20028;-73
2021/01/03 12:27:12;;;;;;;35.70;18.70;;;281.60;2022.40;;;;;;5070249;28;20437;-73
2021/01/03 12:29:38;;;;;;;55.33;27.27;;;281.60;2022.40;;;;;;5070272;28;20039;-72
2021/01/03 12:32:08;;;;;;;45.22;24.02;;;281.60;2048.00;;;;;;5070423;28;20033;-73
2021/01/03 12:34:34;;;;;;;47.47;25.92;;;281.60;2048.00;;;;;;5070388;28;20095;-73
2021/01/03 12:37:06;;;;;;;42.08;22.15;;;281.60;2048.00;;;;;;5070015;28;20068;-73
2021/01/03 12:39:32;;;;;;;43.88;22.85;;;281.60;2048.00;;;;;;5070371;28;20050;-73
2021/01/03 12:42:00;;;;;;;37.50;19.02;;;256.90;2022.40;;;;;;5068720;28;20025;-73
2021/01/03 12:44:26;;;;;;;33.15;18.33;;;281.60;2048.00;;;;;;5070188;28;20480;-73
2021/01/03 12:46:52;;;;;;;31.17;16.80;;;281.60;2048.00;;;;;;5069941;28;20094;-74
2021/01/03 12:49:18;;;;;;;35.25;19.75;;;281.80;2048.00;;;;;;5068525;28;20027;-74
2021/01/03 12:51:44;;;;;;;29.15;16.75;;;281.90;2048.00;;;;;;5068494;28;20146;-73
2021/01/03 12:54:11;;;;;;;18.92;12.48;;;282.10;2048.00;;;;;;5069792;28;20043;-74
2021/01/03 12:56:37;;;;;;;25.75;14.85;;;282.20;1996.80;;;;;;5069337;28;20072;-74
2021/01/03 12:59:04;;;;;;;39.42;20.63;;;282.30;1996.80;;;;;;5068291;28;20071;-74
2021/01/03 13:01:36;;;;;;;30.20;20.40;;;282.30;1971.20;;;;;;5069576;28;20358;-73
2021/01/03 13:04:04;;;;;;;23.88;14.60;;;282.40;1971.20;;;;;;5069779;28;20138;-74
2021/01/03 13:06:30;;;;;;;21.05;12.38;;;282.50;1945.60;;;;;;5068209;28;20031;-74
2021/01/03 13:08:56;;;;;;;23.80;13.32;;;282.50;1945.60;;;;;;5056472;28;20021;-73
2021/01/03 13:11:22;;;;;;;23.13;14.65;;;282.40;1945.60;;;;;;5054889;28;20033;-73
2021/01/03 13:13:48;;;;;;;22.38;13.45;;;282.40;1971.20;;;;;;5056169;28;20049;-74
2021/01/03 13:16:14;;;;;;;26.25;15.45;;;282.40;1971.20;;;;;;5054741;28;20072;-74
2021/01/03 13:18:40;;;;;;;23.10;12.38;;;282.50;1971.20;;;;;;5054844;28;20020;-75
2021/01/03 13:21:06;;;;;;;23.65;13.65;;;282.50;1945.60;;;;;;5054808;28;20028;-75
2021/01/03 13:23:33;;;;;;;23.90;15.32;;;282.40;1945.60;;;;;;5055966;28;20465;-74
2021/01/03 13:25:59;;;;;;;26.27;16.73;;;282.50;1945.60;;;;;;5056163;28;20017;-73
2021/01/03 13:28:25;;;;;;;31.13;18.02;;;282.40;1945.60;;;;;;5054628;28;20048;-73
2021/01/03 13:30:51;;;;;;;26.40;15.70;;;282.40;1945.60;;;;;;5054591;28;20029;-73
2021/01/03 13:33:17;;;;;;;34.40;20.05;;;282.20;1945.60;;;;;;5055805;28;20032;-73
2021/01/03 13:35:43;;;;;;;29.92;17.98;;;282.20;1971.20;;;;;;5055625;28;20017;-73
2021/01/03 13:38:11;;;;;;;36.63;22.70;;;282.20;1971.20;;;;;;5055699;28;20029;-73
2021/01/03 13:40:37;;;;;;;79.25;45.08;;;282.20;1971.20;;;;;;5054409;28;20025;-73
2021/01/03 13:43:03;;;;;;;60.00;31.92;;;282.10;1971.20;;;;;;5054303;28;20115;-73
2021/01/03 13:45:29;;;;;;;52.03;27.27;;;282.10;1971.20;;;;;;5054275;28;20024;-73
2021/01/03 13:47:55;;;;;;;54.08;27.90;;;282.00;1971.20;;;;;;5055453;28;20040;-73
2021/01/03 13:50:22;;;;;;;39.63;22.63;;;282.00;1996.80;;;;;;5055699;28;20528;-73
2021/01/03 13:52:49;;;;;;;39.70;21.08;;;282.00;1996.80;;;;;;5055437;28;20032;-74
2021/01/03 13:55:17;;;;;;;45.20;21.77;;;282.00;1996.80;;;;;;5054070;28;20021;-73
2021/01/03 13:57:42;;;;;;;63.13;38.63;;;281.90;1996.80;;;;;;5055080;28;20056;-74
2021/01/03 14:00:13;;;;;;;92.20;59.88;;;281.90;1996.80;;;;;;5053970;28;20029;-74
2021/01/03 14:02:39;;;;;;;123.10;69.35;;;281.90;2022.40;;;;;;5055258;28;20040;-73
2021/01/03 14:05:05;;;;;;;166.77;101.03;;;281.80;2022.40;;;;;;5055190;28;20025;-73
2021/01/03 14:07:31;;;;;;;317.08;159.82;;;281.80;2022.40;;;;;;5053818;28;20107;-74
2021/01/03 14:09:57;;;;;;;350.90;194.43;;;281.80;2022.40;;;;;;5055421;28;20025;-73
2021/01/03 14:12:24;;;;;;;219.35;126.03;;;281.80;2022.40;;;;;;5055119;28;20101;-73
2021/01/03 14:14:50;;;;;;;71.93;43.08;;;281.80;2022.40;;;;;;5053721;28;20029;-73
2021/01/03 14:17:16;;;;;;;97.30;59.70;;;281.80;2022.40;;;;;;5054840;28;20037;-73
2021/01/03 14:19:42;;;;;;;75.18;42.60;;;281.80;2022.40;;;;;;5053878;28;20025;-73
2021/01/03 14:22:08;;;;;;;85.75;44.60;;;281.70;2048.00;;;;;;5053643;28;20043;-74
2021/01/03 14:24:35;;;;;;;100.38;49.70;;;281.70;2022.40;;;;;;5053611;28;20033;-73
2021/01/03 14:27:01;;;;;;;88.95;47.85;;;281.70;2048.00;;;;;;5053507;28;20029;-74
2021/01/03 14:29:27;;;;;;;113.40;60.83;;;281.70;2022.40;;;;;;5053490;28;20029;-74
2021/01/03 14:31:59;;;;;;;121.38;66.45;;;281.70;2022.40;;;;;;5054968;28;20032;-73
2021/01/03 14:34:36;;;;;;;95.97;56.45;;;281.60;2048.00;;;;;;5053358;28;20378;-73
2021/01/03 14:37:24;;;;;;;83.07;51.40;;;281.60;2022.40;;;;;;5054489;28;20048;-73
2021/01/03 14:39:53;;;;;;;76.75;44.65;;;281.70;2022.40;;;;;;5054569;28;20018;-73
2021/01/03 14:42:50;;;;;;;95.45;54.58;;;281.70;2048.00;;;;;;5054449;28;20029;-75
2021/01/03 14:45:43;;;;;;;102.90;59.25;;;281.70;2048.00;;;;;;5052658;28;20095;-73
2021/01/03 14:48:21;;;;;;;112.35;60.47;;;281.70;2048.00;;;;;;5053120;28;20113;-74
2021/01/03 14:51:05;;;;;;;140.02;70.78;;;281.60;2048.00;;;;;;5054317;28;20021;-73
2021/01/03 14:53:36;;;;;;;142.90;75.15;;;281.60;2048.00;;;;;;5054315;28;20029;-74
2021/01/03 14:56:19;;;;;;;130.27;69.60;;;281.60;2048.00;;;;;;5053922;28;20370;-73
2021/01/03 14:58:48;;;;;;;201.68;98.55;;;281.60;2048.00;;;;;;5052924;28;20028;-73
2021/01/03 15:01:29;;;;;;;160.48;85.47;;;281.60;2048.00;;;;;;5054288;28;20032;-73
2021/01/03 15:04:29;;;;;;;110.95;59.88;;;281.60;2048.00;;;;;;5054110;28;20017;-74
2021/01/03 15:07:03;;;;;;;216.80;113.22;;;256.90;2022.40;;;;;;5054081;28;20021;-74
2021/01/03 15:09:30;;;;;;;238.82;125.07;;;256.90;2022.40;;;;;;5053939;28;20381;-73
2021/01/03 15:12:03;;;;;;;197.98;113.63;;;281.60;2048.00;;;;;;5053921;28;20021;-73
2021/01/03 15:14:29;;;;;;;170.60;92.10;;;256.90;2022.40;;;;;;5053980;28;20017;-73
2021/01/03 15:17:05;;;;;;;59.08;32.60;;;256.90;2022.40;;;;;;5054030;28;20029;-73
2021/01/03 15:19:43;;;;;;;154.50;84.20;;;256.80;2022.40;;;;;;5054113;28;20031;-74
2021/01/03 15:22:12;;;;;;;64.38;31.13;;;256.70;2022.40;;;;;;5053786;28;20496;-74
2021/01/03 15:24:40;;;;;;;27.33;16.65;;;256.70;2022.40;;;;;;5053741;28;20067;-73
2021/01/03 15:27:23;;;;;;;17.75;9.40;;;256.70;1996.80;;;;;;5053643;28;20032;-74
2021/01/03 15:29:50;;;;;;;14.73;9.70;;;256.60;1971.20;;;;;;5052497;28;20115;-74
2021/01/03 15:32:19;;;;;;;20.50;12.65;;;256.60;1971.20;;;;;;5053327;28;20029;-73
2021/01/03 15:35:00;;;;;;;27.92;16.25;;;256.60;1996.80;;;;;;5053570;28;20018;-74
2021/01/03 15:37:32;;;;;;;29.30;17.40;;;256.60;2022.40;;;;;;5053467;28;20489;-73
2021/01/03 15:39:58;;;;;;;29.83;18.65;;;256.50;2022.40;;;;;;5053522;28;20025;-74
2021/01/03 15:42:28;;;;;;;28.67;16.52;;;256.50;2048.00;;;;;;5053467;28;20032;-73
2021/01/03 15:45:16;;;;;;;24.15;13.75;;;256.40;2048.00;;;;;;5053427;28;20029;-74
2021/01/03 15:47:47;;;;;;;39.78;16.77;;;256.40;1996.80;;;;;;5052208;28;20025;-74
2021/01/03 15:50:13;;;;;;;22.08;11.30;;;256.40;1996.80;;;;;;5052151;28;20031;-74
2021/01/03 15:52:45;;;;;;;39.10;16.67;;;256.40;1945.60;;;;;;5053413;28;20032;-74
2021/01/03 15:55:17;;;;;;;57.13;20.67;;;256.40;1971.20;;;;;;5053431;28;20021;-74
2021/01/03 15:57:43;;;;;;;101.45;37.60;;;256.40;1971.20;;;;;;5053145;28;20049;-74
2021/01/03 16:00:13;;;;;;;86.50;35.85;;;256.40;1971.20;;;;;;5052025;28;20032;-74
2021/01/03 16:02:40;;;;;;;63.80;33.35;;;256.40;1971.20;;;;;;5051997;28;20025;-74
2021/01/03 16:05:08;;;;;;;22.50;11.43;;;256.40;1971.20;;;;;;5052015;28;20024;-74
2021/01/03 16:07:34;;;;;;;20.23;11.82;;;256.30;1971.20;;;;;;5053190;28;20025;-74
2021/01/03 16:10:00;;;;;;;39.85;21.77;;;256.30;1996.80;;;;;;5053242;28;20028;-74
2021/01/03 16:12:26;;;;;;;21.70;11.90;;;256.30;1971.20;;;;;;5051945;28;20029;-74
2021/01/03 16:14:52;;;;;;;20.27;10.68;;;256.30;1971.20;;;;;;5053191;28;20021;-74
2021/01/03 16:17:18;;;;;;;18.95;11.32;;;256.30;1971.20;;;;;;5053159;28;20107;-75
2021/01/03 16:19:46;;;;;;;18.75;9.13;;;256.20;1996.80;;;;;;5053502;28;20070;-74
2021/01/03 16:22:27;;;;;;;15.15;7.80;;;256.10;2022.40;;;;;;5051910;28;20109;-75
2021/01/03 16:25:08;;;;;;;20.75;6.40;;;256.00;2022.40;;;;;;5051850;28;20025;-74
2021/01/03 16:27:41;;;;;;;34.33;14.02;;;256.00;2022.40;;;;;;5053053;28;20021;-75
2021/01/03 16:30:41;;;;;;;25.25;11.90;;;256.00;1920.00;;;;;;5053139;28;20546;-75
2021/01/03 16:33:36;;;;;;;26.52;10.90;;;256.10;1894.40;;;;;;5032948;28;20048;-74
2021/01/03 16:36:11;;;;;;;11.73;5.72;;;256.30;1843.20;;;;;;5042618;28;20032;-74
2021/01/03 16:38:57;;;;;;;18.58;8.70;;;256.40;1868.80;;;;;;5053037;28;20350;-74
2021/01/03 16:41:41;;;;;;;30.77;15.50;;;256.40;1868.80;;;;;;5051668;28;20072;-74
2021/01/03 16:44:13;;;;;;;18.00;9.73;;;256.40;1868.80;;;;;;5055823;28;20025;-74
2021/01/03 16:46:50;;;;;;;22.17;9.90;;;256.40;1920.00;;;;;;5056693;28;20074;-74
2021/01/03 16:49:25;;;;;;;23.17;11.15;;;256.40;1945.60;;;;;;5055355;28;20099;-74
2021/01/03 16:51:59;;;;;;;27.00;12.38;;;256.30;1945.60;;;;;;5055455;28;20489;-74
2021/01/03 16:55:00;;;;;;;22.17;11.27;;;256.20;1971.20;;;;;;5055279;28;20470;-74
2021/01/03 16:57:55;;;;;;;27.65;13.68;;;256.10;1996.80;;;;;;5054741;28;20049;-74
2021/01/03 17:00:50;;;;;;;19.00;10.65;;;256.00;2022.40;;;;;;5055159;28;20028;-74
2021/01/03 17:03:32;;;;;;;18.52;10.93;;;231.30;2048.00;;;;;;5056433;28;20028;-74
2021/01/03 17:05:59;;;;;;;15.80;9.90;;;231.20;2073.60;;;;;;5056372;28;20055;-74
2021/01/03 17:08:41;;;;;;;15.20;8.00;;;231.10;2099.20;;;;;;5056330;28;20053;-74
2021/01/03 17:11:19;;;;;;;14.45;7.72;;;231.00;2099.20;;;;;;5055283;28;20163;-74
2021/01/03 17:14:13;;;;;;;17.25;9.52;;;231.00;2124.80;;;;;;5056371;28;20032;-74
2021/01/03 17:17:02;;;;;;;17.88;10.07;;;230.90;2124.80;;;;;;5056072;28;20040;-74
2021/01/03 17:19:55;;;;;;;16.00;9.02;;;230.80;2150.40;;;;;;5056362;28;20044;-74
2021/01/03 17:22:39;;;;;;;23.52;11.88;;;230.80;2150.40;;;;;;5056228;28;20557;-74
2021/01/03 17:25:20;;;;;;;18.92;10.52;;;230.70;2150.40;;;;;;5054750;28;20099;-74
2021/01/03 17:28:09;;;;;;;14.57;9.05;;;230.70;2150.40;;;;;;5054660;28;20021;-74
2021/01/03 17:31:06;;;;;;;19.38;10.70;;;230.70;2150.40;;;;;;5051806;28;20064;-74
2021/01/03 17:33:45;;;;;;;20.83;12.13;;;230.60;2150.40;;;;;;5055825;28;20029;-74
2021/01/03 17:36:59;;;;;;;30.02;14.32;;;230.60;2150.40;;;;;;5055804;28;20027;-74
2021/01/03 17:39:29;;;;;;;49.53;21.25;;;230.50;2150.40;;;;;;5050680;28;20041;-74
2021/01/03 17:41:59;;;;;;;56.17;22.88;;;230.50;2150.40;;;;;;5055922;28;20388;-74
2021/01/03 17:44:32;;;;;;;33.95;15.35;;;230.50;2150.40;;;;;;5055573;28;20045;-74
2021/01/03 17:47:24;;;;;;;40.10;17.42;;;230.50;2150.40;;;;;;5055610;28;20397;-74
2021/01/03 17:49:56;;;;;;;50.25;19.27;;;230.50;2150.40;;;;;;5048695;28;20029;-74
2021/01/03 17:52:30;;;;;;;50.42;18.27;;;230.50;2150.40;;;;;;5055446;28;20032;-74
2021/01/03 17:54:55;;;;;;;38.85;17.52;;;230.40;2150.40;;;;;;5055374;28;20158;-74
2021/01/03 17:57:25;;;;;;;50.35;20.85;;;230.40;2150.40;;;;;;5053855;28;20088;-74
2021/01/03 17:59:51;;;;;;;42.97;20.05;;;230.40;2150.40;;;;;;5054056;28;20025;-74
2021/01/03 18:02:17;;;;;;;38.85;18.70;;;230.40;2176.00;;;;;;5054050;28;20056;-74
2021/01/03 18:04:43;;;;;;;43.20;18.95;;;230.40;2176.00;;;;;;5053963;28;20381;-74
2021/01/03 18:07:12;;;;;;;39.28;21.05;;;230.40;2176.00;;;;;;5055484;28;20383;-74
2021/01/03 18:09:39;;;;;;;46.47;23.88;;;230.40;2176.00;;;;;;5055134;28;20028;-74
2021/01/03 18:12:05;;;;;;;52.28;24.80;;;230.40;2201.60;;;;;;5055137;28;20029;-75
2021/01/03 18:14:31;;;;;;;55.40;25.60;;;230.40;2201.60;;;;;;5053812;28;20025;-74
2021/01/03 18:16:57;;;;;;;46.95;25.13;;;205.70;2227.20;;;;;;5054953;28;20115;-74
2021/01/03 18:19:23;;;;;;;52.65;26.42;;;205.70;2227.20;;;;;;5053717;28;20111;-74
2021/01/03 18:21:49;;;;;;;44.97;23.30;;;205.70;2252.80;;;;;;5054950;28;20553;-74
2021/01/03 18:24:20;;;;;;;51.40;25.45;;;205.60;2252.80;;;;;;5053614;28;20029;-74
2021/01/03 18:26:47;;;;;;;45.83;24.45;;;205.70;2252.80;;;;;;5053590;28;20116;-74
2021/01/03 18:29:18;;;;;;;47.33;26.40;;;205.70;2252.80;;;;;;5053500;28;20469;-74
2021/01/03 18:31:47;;;;;;;53.40;24.65;;;205.60;2252.80;;;;;;5054765;28;20104;-74
2021/01/03 18:34:14;;;;;;;53.17;27.02;;;205.60;2252.80;;;;;;5054640;28;20033;-75
2021/01/03 18:36:46;;;;;;;49.30;24.70;;;205.50;2252.80;;;;;;5054682;28;20028;-74
2021/01/03 18:39:12;;;;;;;80.55;44.90;;;205.50;2252.80;;;;;;5053313;28;20049;-74
2021/01/03 18:41:38;;;;;;;52.10;24.38;;;205.60;2252.80;;;;;;5054521;28;20065;-73
2021/01/03 18:44:04;;;;;;;47.13;23.83;;;205.50;2252.80;;;;;;5054451;28;20091;-73
2021/01/03 18:46:30;;;;;;;55.53;28.35;;;205.50;2252.80;;;;;;5054428;28;20068;-74
2021/01/03 18:48:56;;;;;;;59.63;27.83;;;205.50;2252.80;;;;;;5054338;28;20036;-74
2021/01/03 18:51:22;;;;;;;61.53;30.05;;;205.50;2252.80;;;;;;5053073;28;20032;-73
2021/01/03 18:53:48;;;;;;;49.03;26.92;;;205.40;2252.80;;;;;;5054317;28;20485;-74
2021/01/03 18:56:24;;;;;;;59.42;27.80;;;205.40;2252.80;;;;;;5052695;28;20084;-73
2021/01/03 18:58:50;;;;;;;49.13;23.95;;;205.30;2252.80;;;;;;5053062;28;20032;-73
2021/01/03 19:01:16;;;;;;;48.78;22.20;;;205.30;2252.80;;;;;;5054187;28;20024;-74
2021/01/03 19:03:42;;;;;;;45.05;21.33;;;205.30;2252.80;;;;;;5054382;28;20098;-73
2021/01/03 19:06:08;;;;;;;38.95;18.70;;;205.30;2252.80;;;;;;5052314;28;20025;-73
2021/01/03 19:08:34;;;;;;;34.67;18.08;;;205.20;2252.80;;;;;;5052746;28;20025;-73
2021/01/03 19:11:00;;;;;;;34.33;17.35;;;205.10;2252.80;;;;;;5054004;28;20355;-74
2021/01/03 19:13:26;;;;;;;48.50;25.30;;;205.10;2252.80;;;;;;5052717;28;20024;-73
2021/01/03 19:15:52;;;;;;;45.10;22.27;;;205.10;2252.80;;;;;;5052636;28;20029;-73
2021/01/03 19:18:18;;;;;;;42.00;20.67;;;205.00;2252.80;;;;;;5054152;28;20025;-74
2021/01/03 19:20:44;;;;;;;31.05;14.38;;;205.00;2252.80;;;;;;5052546;28;20068;-74
2021/01/03 19:23:10;;;;;;;36.05;15.65;;;205.00;2252.80;;;;;;5052713;28;20060;-73
2021/01/03 19:25:37;;;;;;;35.92;16.13;;;204.90;2252.80;;;;;;5052476;28;20029;-74
2021/01/03 19:28:03;;;;;;;27.60;15.05;;;204.90;2252.80;;;;;;5053947;28;20112;-74
2021/01/03 19:30:29;;;;;;;29.27;13.38;;;204.90;2252.80;;;;;;5053690;28;20079;-74
2021/01/03 19:32:56;;;;;;;25.73;13.38;;;204.80;2252.80;;;;;;5052323;28;20033;-74
2021/01/03 19:35:23;;;;;;;27.45;13.88;;;204.80;2252.80;;;;;;5053596;28;20080;-74
2021/01/03 19:37:51;;;;;;;27.50;13.30;;;180.10;2252.80;;;;;;5053472;28;20037;-74
2021/01/03 19:40:19;;;;;;;29.20;16.25;;;179.80;2252.80;;;;;;5053557;28;20108;-74
2021/01/03 19:42:46;;;;;;;29.65;14.98;;;180.10;2252.80;;;;;;5053517;28;20029;-74
2021/01/03 19:45:12;;;;;;;28.00;16.17;;;180.10;2252.80;;;;;;5053479;28;20032;-74
2021/01/03 19:47:39;;;;;;;31.33;16.92;;;180.10;2252.80;;;;;;5053486;28;20381;-74
2021/01/03 19:50:08;;;;;;;34.33;18.42;;;180.10;2252.80;;;;;;5053696;28;20036;-74
2021/01/03 19:52:34;;;;;;;26.23;16.55;;;180.10;2252.80;;;;;;5053371;28;20025;-74
2021/01/03 19:55:00;;;;;;;31.02;18.20;;;180.10;2252.80;;;;;;5052160;28;20029;-74
2021/01/03 19:57:26;;;;;;;28.98;16.08;;;180.10;2252.80;;;;;;5051821;28;20060;-74
2021/01/03 19:59:52;;;;;;;35.45;20.27;;;180.10;2252.80;;;;;;5052112;28;20036;-74
2021/01/03 20:02:18;;;;;;;42.78;22.65;;;180.10;2252.80;;;;;;5053637;28;20037;-74
2021/01/03 20:04:44;;;;;;;32.50;20.40;;;180.00;2252.80;;;;;;5053250;28;20090;-74
2021/01/03 20:07:11;;;;;;;31.58;19.00;;;180.00;2252.80;;;;;;5052025;28;20063;-74
2021/01/03 20:09:37;;;;;;;37.03;20.40;;;180.00;2252.80;;;;;;5053209;28;20083;-74
2021/01/03 20:12:03;;;;;;;42.10;23.27;;;180.10;2252.80;;;;;;5052068;28;20037;-75
2021/01/03 20:14:29;;;;;;;47.65;28.15;;;180.10;2252.80;;;;;;5053276;28;20064;-74
2021/01/03 20:16:58;;;;;;;62.75;32.10;;;204.80;2252.80;;;;;;5053086;28;20061;-74
2021/01/03 20:19:25;;;;;;;71.18;34.50;;;204.80;2252.80;;;;;;5056632;28;20021;-74
2021/01/03 20:21:57;;;;;;;57.95;31.80;;;204.80;2252.80;;;;;;5057180;28;20079;-74
2021/01/03 20:24:24;;;;;;;63.05;34.47;;;204.80;2252.80;;;;;;5055803;28;20060;-74
2021/01/03 20:26:53;;;;;;;54.28;31.20;;;204.80;2252.80;;;;;;5057095;28;20499;-73
2021/01/03 20:29:19;;;;;;;49.42;29.83;;;204.80;2252.80;;;;;;5055802;28;20059;-73
2021/01/03 20:31:45;;;;;;;40.03;23.45;;;204.80;2252.80;;;;;;5056982;28;20032;-74
2021/01/03 20:34:12;;;;;;;35.50;24.65;;;204.80;2252.80;;;;;;5055694;28;20025;-74
2021/01/03 20:36:38;;;;;;;35.72;22.27;;;204.80;2252.80;;;;;;5056833;28;20047;-74
2021/01/03 20:39:04;;;;;;;39.05;25.33;;;204.80;2252.80;;;;;;5056881;28;20146;-74
2021/01/03 20:41:30;;;;;;;39.92;26.10;;;204.80;2252.80;;;;;;5057017;28;20082;-74
2021/01/03 20:43:56;;;;;;;39.22;25.58;;;204.80;2252.80;;;;;;5056819;28;20478;-74
2021/01/03 20:46:22;;;;;;;30.70;23.13;;;204.80;2252.80;;;;;;5056952;28;20040;-74
2021/01/03 20:48:49;;;;;;;38.95;22.77;;;204.80;2252.80;;;;;;5055396;28;20033;-74
2021/01/03 20:51:17;;;;;;;38.13;24.92;;;180.10;2252.80;;;;;;5055404;28;20029;-74
2021/01/03 20:53:43;;;;;;;39.20;26.20;;;204.80;2252.80;;;;;;5056602;28;20025;-74
2021/01/03 20:56:10;;;;;;;48.40;30.17;;;204.90;2252.80;;;;;;5056220;28;20053;-74
2021/01/03 20:58:36;;;;;;;43.28;25.30;;;204.90;2252.80;;;;;;5055258;28;20115;-74
2021/01/03 21:01:06;;;;;;;39.80;25.58;;;204.90;2252.80;;;;;;5055193;28;20120;-74
2021/01/03 21:03:32;;;;;;;36.72;24.70;;;204.90;2252.80;;;;;;5054902;28;20033;-74
2021/01/03 21:05:58;;;;;;;39.50;24.65;;;205.00;2252.80;;;;;;5056727;28;20412;-75
2021/01/03 21:08:24;;;;;;;52.78;25.02;;;205.10;2252.80;;;;;;5055094;28;20033;-76
2021/01/03 21:10:50;;;;;;;36.70;23.50;;;205.10;2252.80;;;;;;5054998;28;20373;-73
2021/01/03 21:13:16;;;;;;;37.70;24.42;;;205.10;2252.80;;;;;;5056141;28;20433;-77
2021/01/03 21:15:42;;;;;;;35.67;22.55;;;205.10;2252.80;;;;;;5054897;28;20036;-76
2021/01/03 21:18:08;;;;;;;36.75;23.05;;;205.00;2252.80;;;;;;5056150;28;20017;-75
2021/01/03 21:20:34;;;;;;;33.58;20.30;;;205.10;2252.80;;;;;;5054885;28;20025;-76
2021/01/03 21:22:59;;;;;;;29.60;21.42;;;205.00;2252.80;;;;;;5056186;28;20021;-73
2021/01/03 21:25:28;;;;;;;28.60;19.52;;;205.10;2252.80;;;;;;5055954;28;20078;-74
2021/01/03 21:28:24;;;;;;;32.50;21.55;;;205.00;2252.80;;;;;;5055872;28;20021;-74
2021/01/03 21:30:57;;;;;;;35.92;21.63;;;205.00;2252.80;;;;;;5055780;28;20481;-74
2021/01/03 21:33:56;;;;;;;32.63;20.77;;;204.90;2252.80;;;;;;5055780;28;20017;-73
2021/01/03 21:36:31;;;;;;;36.13;22.02;;;204.90;2252.80;;;;;;5054365;28;20087;-74
2021/01/03 21:38:57;;;;;;;32.58;21.30;;;204.90;2252.80;;;;;;5055607;28;20017;-72
2021/01/03 21:41:42;;;;;;;28.10;19.40;;;204.90;2252.80;;;;;;5055603;28;20029;-72
2021/01/03 21:44:16;;;;;;;;;;;204.90;2252.80;;;;;;5054628;28;20025;-74
2021/01/03 21:46:57;;;;;;;32.00;20.38;;;204.90;2252.80;;;;;;5054149;28;20419;-74
2021/01/03 21:49:36;;;;;;;34.75;22.55;;;204.90;2252.80;;;;;;5051838;28;20056;-73
2021/01/03 21:52:20;;;;;;;37.65;21.85;;;204.90;2252.80;;;;;;5053488;28;20025;-72
2021/01/03 21:55:13;;;;;;;33.97;21.02;;;204.90;2252.80;;;;;;5048657;28;20607;-73
2021/01/03 21:58:06;;;;;;;35.83;22.10;;;204.90;2252.80;;;;;;5049859;28;20053;-72
2021/01/03 22:01:00;;;;;;;34.53;21.20;;;204.90;2252.80;;;;;;5052128;28;20136;-73
2021/01/03 22:03:57;;;;;;;39.37;23.57;;;204.90;2252.80;;;;;;5050567;28;20022;-73
2021/01/03 22:06:47;;;;;;;45.35;26.77;;;204.90;2252.80;;;;;;5050887;28;20265;-73
2021/01/03 22:09:52;;;;;;;44.08;26.27;;;205.00;2252.80;;;;;;5052187;28;20025;-74
2021/01/03 22:12:24;;;;;;;42.72;25.95;;;204.90;2252.80;;;;;;5052935;28;20021;-73
2021/01/03 22:15:04;;;;;;;37.00;24.02;;;204.90;2252.80;;;;;;5053623;28;20092;-73
2021/01/03 22:18:18;;;;;;;37.58;25.42;;;204.90;2252.80;;;;;;5053693;28;20063;-73
2021/01/03 22:20:50;;;;;;;31.35;21.52;;;204.90;2252.80;;;;;;5042234;28;20127;-73
2021/01/03 22:23:35;;;;;;;28.67;20.05;;;204.90;2252.80;;;;;;5052114;28;20481;-73
2021/01/03 22:26:09;;;;;;;34.50;22.58;;;204.80;2252.80;;;;;;5052241;28;20469;-74
2021/01/03 22:29:06;;;;;;;32.08;21.08;;;204.80;2252.80;;;;;;5052936;28;20020;-73
2021/01/03 22:31:44;;;;;;;33.00;22.30;;;204.80;2252.80;;;;;;5051003;28;20438;-74
2021/01/03 22:34:30;;;;;;;30.40;21.02;;;204.80;2252.80;;;;;;5051704;28;20025;-74
2021/01/03 22:36:58;;;;;;;35.88;21.55;;;204.80;2252.80;;;;;;5041889;28;20083;-72
2021/01/03 22:39:39;;;;;;;30.77;21.13;;;204.80;2252.80;;;;;;5051734;28;20473;-72
2021/01/03 22:42:42;;;;;;;36.08;22.38;;;180.10;2252.80;;;;;;5032583;28;20024;-73
2021/01/03 22:45:26;;;;;;;34.40;20.88;;;180.10;2252.80;;;;;;5065785;28;20111;-73
2021/01/03 22:48:15;;;;;;;35.38;21.42;;;180.10;2252.80;;;;;;5053764;28;20485;-74
2021/01/03 22:50:49;;;;;;;43.03;23.50;;;180.10;2252.80;;;;;;5051795;28;20393;-74
2021/01/03 22:53:26;;;;;;;32.63;19.70;;;180.00;2252.80;;;;;;5052117;28;20068;-74
2021/01/03 22:56:07;;;;;;;29.52;18.80;;;180.00;2252.80;;;;;;5052567;28;20433;-74
2021/01/03 22:58:50;;;;;;;30.35;18.40;;;180.00;2252.80;;;;;;5053916;28;20039;-74
2021/01/03 23:01:32;;;;;;;28.23;19.47;;;180.00;2252.80;;;;;;5054087;28;20021;-74
2021/01/03 23:04:23;;;;;;;27.02;18.27;;;180.00;2252.80;;;;;;5052923;28;20024;-73
2021/01/03 23:07:07;;;;;;;29.60;18.77;;;180.00;2252.80;;;;;;5054439;28;20082;-72
2021/01/03 23:09:50;;;;;;;32.20;19.00;;;180.00;2252.80;;;;;;5052686;28;20437;-73
2021/01/03 23:12:23;;;;;;;29.33;20.02;;;179.90;2252.80;;;;;;5054120;28;20056;-74
2021/01/03 23:14:52;;;;;;;;;;;179.90;2252.80;;;;;;5053000;28;20025;-73
2021/01/03 23:17:31;;;;;;;31.92;19.10;;;179.90;2252.80;;;;;;5052472;28;20341;-73
2021/01/03 23:19:57;;;;;;;34.58;21.35;;;179.90;2252.80;;;;;;5052637;28;20047;-73
2021/01/03 23:22:29;;;;;;;35.88;21.33;;;179.90;2252.80;;;;;;5054022;28;20037;-74
2021/01/03 23:25:00;;;;;;;33.55;20.00;;;179.80;2252.80;;;;;;5052446;28;20032;-73
2021/01/03 23:27:39;;;;;;;32.80;20.75;;;179.80;2252.80;;;;;;5052447;28;20409;-72
2021/01/03 23:30:09;;;;;;;34.63;20.33;;;179.80;2252.80;;;;;;5053506;28;20029;-74
2021/01/03 23:32:36;;;;;;;34.80;20.02;;;179.80;2252.80;;;;;;5051641;28;20548;-74
2021/01/03 23:35:07;;;;;;;36.22;22.23;;;179.70;2252.80;;;;;;5052165;28;20033;-74
2021/01/03 23:38:06;;;;;;;34.40;19.73;;;179.60;2252.80;;;;;;5053261;28;20569;-74
2021/01/03 23:40:54;;;;;;;27.15;18.58;;;179.60;2252.80;;;;;;5052190;28;20492;-75
2021/01/03 23:43:43;;;;;;;33.67;19.27;;;179.70;2252.80;;;;;;5053367;28;20033;-73
2021/01/03 23:46:34;;;;;;;35.42;22.98;;;179.60;2252.80;;;;;;5051711;28;20077;-74
2021/01/03 23:49:09;;;;;;;32.60;20.17;;;179.60;2252.80;;;;;;5044750;28;20025;-75
2021/01/03 23:51:54;;;;;;;33.30;20.80;;;179.60;2252.80;;;;;;5053027;28;20029;-74
2021/01/03 23:54:31;;;;;;;33.22;20.60;;;179.60;2252.80;;;;;;5053196;28;20020;-74
2021/01/03 23:57:03;;;;;;;29.42;20.95;;;179.60;2252.80;;;;;;5052991;28;20500;-75
2021/01/03 23:59:43;;;;;;;30.52;19.70;;;179.50;2252.80;;;;;;5053483;28;20462;-74
